Time;durP1;ratioP1;P1;durP2;ratioP2;P2;SDS_P1;SDS_P2;PMS_P1;PMS_P2;Temp;Humidity;BMP_temperature;BMP_pressure;BME280_temperature;BME280_humidity;BME280_pressure;Samples;Min_cycle;Max_cycle;Signal;HPM_P1;HPM_P2
2023/03/21 00:04:23;;;;;;;1.57;0.70;;;11.90;99.90;;;;;;20828791;28;20214;-74
2023/03/21 00:14:29;;;;;;;1.70;1.10;;;;;;;;;;20832338;28;20205;-73
2023/03/21 00:24:31;;;;;;;1.50;0.80;;;;;;;;;;20823123;28;20226;-73
2023/03/21 00:34:32;;;;;;;2.23;1.23;;;;;;;;;;20820820;28;20225;-74
2023/03/21 00:44:35;;;;;;;1.20;1.00;;;;;;;;;;20820314;28;20230;-73
2023/03/21 00:54:37;;;;;;;1.67;0.90;;;;;;;;;;20828924;28;20206;-74
2023/03/21 01:04:39;;;;;;;0.70;0.50;;;;;;;;;;20796667;28;20296;-73
2023/03/21 01:14:41;;;;;;;1.67;0.63;;;;;;;;;;20831134;28;20241;-73
2023/03/21 01:24:43;;;;;;;3.80;0.67;;;;;;;;;;20825286;28;20268;-73
2023/03/21 01:34:45;;;;;;;0.80;0.70;;;;;;;;;;20824566;28;20273;-73
2023/03/21 01:44:57;;;;;;;2.67;0.90;;;11.30;99.90;;;;;;20825406;28;20214;-73
2023/03/21 01:55:02;;;;;;;0.70;0.50;;;;;;;;;;20823895;28;20272;-73
2023/03/21 02:05:07;;;;;;;1.70;0.70;;;;;;;;;;20821781;28;20230;-73
2023/03/21 02:15:09;;;;;;;3.63;0.80;;;;;;;;;;20822431;28;20214;-73
2023/03/21 02:25:46;;;;;;;1.43;0.77;;;;;;;;;;20823229;28;20238;-73
2023/03/21 02:35:55;;;;;;;1.70;0.80;;;;;;;;;;20894258;22;20927;-71
2023/03/21 02:46:15;;;;;;;1.63;0.90;;;11.20;99.90;;;;;;20950795;28;20216;-71
2023/03/21 02:56:18;;;;;;;0.90;0.50;;;;;;;;;;20949535;28;20624;-70
2023/03/21 03:06:28;;;;;;;0.83;0.53;;;;;;;;;;20960939;28;20251;-71
2023/03/21 03:16:37;;;;;;;0.70;0.60;;;;;;;;;;20948885;28;20229;-71
2023/03/21 03:26:45;;;;;;;1.10;0.60;;;;;;;;;;20944810;28;20217;-71
2023/03/21 03:36:50;;;;;;;1.27;0.50;;;;;;;;;;20954875;28;20221;-71
2023/03/21 03:47:00;;;;;;;1.70;0.80;;;10.80;99.90;;;;;;20963748;28;20606;-71
2023/03/21 03:57:03;;;;;;;1.47;0.60;;;;;;;;;;20963237;28;20297;-71
2023/03/21 04:07:06;;;;;;;1.43;0.90;;;;;;;;;;20959385;28;20282;-69
2023/03/21 04:17:10;;;;;;;0.93;0.60;;;;;;;;;;20961971;28;20217;-69
2023/03/21 04:27:12;;;;;;;0.73;0.50;;;;;;;;;;20960206;28;20209;-70
2023/03/21 04:37:17;;;;;;;1.20;0.67;;;;;;;;;;20894080;28;20284;-69
2023/03/21 04:47:20;;;;;;;0.67;0.43;;;;;;;;;;20876312;28;20214;-70
2023/03/21 04:57:23;;;;;;;0.80;0.60;;;;;;;;;;20945752;28;20237;-70
2023/03/21 05:07:25;;;;;;;1.00;0.70;;;;;;;;;;20957996;28;20201;-70
2023/03/21 05:17:28;;;;;;;1.40;0.60;;;;;;;;;;20940850;28;20283;-70
2023/03/21 05:27:34;;;;;;;0.83;0.50;;;;;;;;;;20957098;28;20213;-70
2023/03/21 05:37:40;;;;;;;1.13;0.70;;;;;;;;;;20939184;28;20283;-71
2023/03/21 05:47:42;;;;;;;1.47;0.60;;;;;;;;;;20938713;28;20209;-71
2023/03/21 05:57:47;;;;;;;3.20;0.60;;;;;;;;;;20970620;28;20381;-71
2023/03/21 06:07:56;;;;;;;1.60;0.53;;;;;;;;;;20916491;28;20224;-71
2023/03/21 06:17:58;;;;;;;1.10;0.50;;;;;;;;;;20932034;28;20221;-71
2023/03/21 06:28:01;;;;;;;1.37;0.87;;;;;;;;;;20941741;28;20283;-71
2023/03/21 06:38:04;;;;;;;5.17;0.80;;;;;;;;;;20967048;28;20643;-71
2023/03/21 06:48:08;;;;;;;1.10;0.63;;;;;;;;;;20934628;28;20217;-71
2023/03/21 06:58:32;;;;;;;5.00;2.20;;;;;;;;;;20945176;28;20697;-70
2023/03/21 07:08:35;;;;;;;1.53;0.70;;;;;;;;;;20947681;28;20217;-70
2023/03/21 07:18:38;;;;;;;1.60;0.50;;;;;;;;;;20948984;28;20579;-69
2023/03/21 07:28:40;;;;;;;1.60;0.50;;;;;;;;;;20943640;28;21069;-68
2023/03/21 07:38:44;;;;;;;2.40;0.70;;;11.20;99.90;;;;;;20897008;28;20782;-70
2023/03/21 07:48:46;;;;;;;1.73;0.70;;;;;;;;;;20892103;28;20217;-68
2023/03/21 07:58:48;;;;;;;1.17;0.60;;;;;;;;;;20944076;28;20286;-68
2023/03/21 08:08:50;;;;;;;2.00;0.97;;;;;;;;;;20961286;28;20688;-69
2023/03/21 08:18:52;;;;;;;1.70;0.60;;;11.80;99.90;;;;;;20945631;28;20765;-68
2023/03/21 08:28:54;;;;;;;0.63;0.50;;;;;;;;;;20960676;28;20294;-68
2023/03/21 08:39:03;;;;;;;2.40;0.80;;;;;;;;;;20975570;28;20213;-68
2023/03/21 08:49:06;;;;;;;0.60;0.50;;;;;;;;;;20975479;28;20225;-69
2023/03/21 08:59:08;;;;;;;1.27;0.60;;;;;;;;;;20999945;22;20262;-75
2023/03/21 09:09:11;;;;;;;1.77;0.77;;;;;;;;;;21123121;28;20265;-70
2023/03/21 09:19:12;;;;;;;0.70;0.60;;;;;;;;;;21159872;28;20220;-75
2023/03/21 09:29:14;;;;;;;1.17;0.97;;;;;;;;;;21069025;28;20205;-74
2023/03/21 09:39:16;;;;;;;0.97;0.70;;;;;;;;;;21071126;28;20277;-75
2023/03/21 09:49:20;;;;;;;2.37;1.03;;;;;;;;;;21095899;28;20324;-74
2023/03/21 09:59:28;;;;;;;1.50;0.93;;;;;;;;;;21131021;28;20255;-73
2023/03/21 10:09:31;;;;;;;1.27;0.90;;;;;;;;;;21153897;28;20260;-74
2023/03/21 10:19:32;;;;;;;1.93;1.00;;;;;;;;;;21089030;28;20277;-74
2023/03/21 10:29:41;;;;;;;2.30;1.17;;;;;;;;;;21067520;28;20200;-75
2023/03/21 10:39:46;;;;;;;1.33;0.80;;;;;;;;;;21065999;28;20289;-74
2023/03/21 10:49:48;;;;;;;2.40;1.00;;;;;;;;;;21065875;28;20200;-74
2023/03/21 10:59:57;;;;;;;1.30;0.83;;;12.80;99.90;;;;;;21065242;28;20715;-75
2023/03/21 11:10:00;;;;;;;1.00;0.70;;;13.60;99.90;;;;;;21065248;28;20238;-75
2023/03/21 11:20:09;;;;;;;1.77;1.10;;;13.20;99.90;;;;;;21064499;28;20220;-75
2023/03/21 11:30:19;;;;;;;1.50;0.60;;;;;;;;;;21090520;28;20205;-74
2023/03/21 11:40:22;;;;;;;2.50;0.77;;;14.20;99.90;;;;;;21125144;28;20583;-75
2023/03/21 11:50:31;;;;;;;1.37;0.80;;;;;;;;;;21148081;28;20264;-73
2023/03/21 12:00:53;;;;;;;1.07;0.60;;;14.60;99.90;;;;;;21126918;28;20231;-72
2023/03/21 12:11:03;;;;;;;0.50;0.50;;;;;;;;;;21164514;28;20617;-75
2023/03/21 12:21:19;;;;;;;1.23;0.60;;;;;;;;;;21162886;28;20304;-75
2023/03/21 12:31:28;;;;;;;1.30;0.67;;;;;;;;;;21145968;28;20207;-75
2023/03/21 12:41:34;;;;;;;1.33;0.70;;;;;;;;;;21144637;28;20577;-70
2023/03/21 12:51:41;;;;;;;0.93;0.70;;;;;;;;;;21144151;28;20208;-71
2023/03/21 13:01:45;;;;;;;1.00;0.70;;;14.70;99.90;;;;;;21162034;28;20268;-70
2023/03/21 13:11:49;;;;;;;0.90;0.57;;;;;;;;;;21162432;28;20195;-75
2023/03/21 13:21:57;;;;;;;0.80;0.63;;;;;;;;;;21134586;28;20269;-75
2023/03/21 13:32:06;;;;;;;0.70;0.60;;;;;;;;;;21088453;28;20272;-74
2023/03/21 13:42:17;;;;;;;1.23;0.60;;;;;;;;;;21074674;28;20213;-74
2023/03/21 13:52:27;;;;;;;0.97;0.60;;;14.10;99.90;;;;;;21070716;28;20211;-74
2023/03/21 14:02:31;;;;;;;1.53;0.63;;;14.20;99.90;;;;;;21069184;28;20212;-75
2023/03/21 14:12:39;;;;;;;1.00;0.73;;;14.10;99.90;;;;;;21068037;28;20282;-75
2023/03/21 14:22:41;;;;;;;1.20;0.60;;;;;;;;;;21069523;28;20266;-75
2023/03/21 14:32:43;;;;;;;1.70;0.90;;;;;;;;;;21066028;28;20230;-72
2023/03/21 14:42:46;;;;;;;0.77;0.67;;;;;;;;;;21047377;28;20592;-72
2023/03/21 14:52:48;;;;;;;1.23;0.77;;;;;;;;;;21060774;28;20205;-73
2023/03/21 15:02:52;;;;;;;2.00;0.67;;;;;;;;;;21036811;22;20703;-71
2023/03/21 15:12:56;;;;;;;1.03;0.70;;;;;;;;;;20974270;28;20617;-71
2023/03/21 15:23:12;;;;;;;0.67;0.50;;;13.80;99.90;;;;;;21045548;28;20232;-71
2023/03/21 15:33:14;;;;;;;1.17;0.80;;;;;;;;;;20991542;28;20209;-71
2023/03/21 15:43:17;;;;;;;0.83;0.60;;;;;;;;;;20961481;28;20205;-71
2023/03/21 15:53:19;;;;;;;0.97;0.70;;;;;;;;;;20961782;28;20209;-71
2023/03/21 16:03:35;;;;;;;1.17;0.70;;;13.70;99.90;;;;;;20976523;28;20301;-71
2023/03/21 16:13:36;;;;;;;1.37;0.70;;;;;;;;;;20942801;28;20683;-71
2023/03/21 16:23:38;;;;;;;1.27;0.97;;;;;;;;;;20967647;28;20294;-71
2023/03/21 16:33:40;;;;;;;0.90;0.70;;;;;;;;;;20956405;28;20205;-71
2023/03/21 16:43:43;;;;;;;1.63;0.80;;;;;;;;;;20973634;28;20266;-70
2023/03/21 16:53:45;;;;;;;2.00;1.40;;;;;;;;;;20975794;28;20256;-71
2023/03/21 17:03:47;;;;;;;3.43;1.13;;;13.00;99.90;;;;;;20955445;28;20221;-71
2023/03/21 17:13:50;;;;;;;4.63;2.03;;;;;;;;;;20956896;28;20213;-71
2023/03/21 17:23:52;;;;;;;7.13;3.70;;;;;;;;;;20972370;28;20365;-71
2023/03/21 17:33:54;;;;;;;3.40;1.70;;;;;;;;;;20974292;28;20235;-69
2023/03/21 17:43:56;;;;;;;13.77;8.00;;;;;;;;;;20954070;28;20247;-69
2023/03/21 17:53:58;;;;;;;2.73;1.60;;;;;;;;;;20940775;28;20263;-69
2023/03/21 18:04:03;;;;;;;1.73;1.07;;;;;;;;;;20957726;28;20598;-68
2023/03/21 18:14:05;;;;;;;1.43;1.03;;;;;;;;;;20950645;28;20205;-69
2023/03/21 18:24:07;;;;;;;7.57;1.73;;;;;;;;;;20951649;28;20773;-69
2023/03/21 18:34:09;;;;;;;1.80;1.13;;;;;;;;;;20887483;28;20626;-68
2023/03/21 18:44:12;;;;;;;1.33;1.10;;;;;;;;;;20911186;28;20662;-68
2023/03/21 18:54:15;;;;;;;1.57;0.93;;;;;;;;;;20941410;28;20605;-68
2023/03/21 19:04:18;;;;;;;1.20;0.80;;;;;;;;;;20956094;28;20737;-68
2023/03/21 19:14:20;;;;;;;3.27;1.53;;;;;;;;;;20940346;28;20745;-68
2023/03/21 19:24:21;;;;;;;1.80;1.17;;;;;;;;;;20940614;28;20274;-68
2023/03/21 19:34:24;;;;;;;3.73;0.90;;;;;;;;;;20952190;28;20225;-68
2023/03/21 19:44:26;;;;;;;0.93;0.83;;;;;;;;;;20910334;28;20629;-68
2023/03/21 19:54:29;;;;;;;3.43;1.47;;;;;;;;;;20970272;28;20270;-68
2023/03/21 20:04:31;;;;;;;3.17;1.90;;;;;;;;;;20957659;28;20689;-68
2023/03/21 20:14:33;;;;;;;2.80;1.23;;;;;;;;;;20958042;28;20609;-68
2023/03/21 20:24:36;;;;;;;2.30;1.40;;;;;;;;;;20954308;28;20277;-68
2023/03/21 20:34:38;;;;;;;2.27;1.10;;;;;;;;;;20963722;28;20217;-68
2023/03/21 20:44:41;;;;;;;1.67;1.07;;;;;;;;;;21054486;28;20501;-68
2023/03/21 20:54:44;;;;;;;2.23;1.40;;;;;;;;;;21054584;28;20281;-68
2023/03/21 21:04:48;;;;;;;1.20;0.83;;;;;;;;;;21020802;28;20228;-69
2023/03/21 21:14:49;;;;;;;1.93;1.10;;;;;;;;;;21035621;28;20232;-69
2023/03/21 21:24:51;;;;;;;1.43;1.00;;;;;;;;;;21038861;28;20289;-69
2023/03/21 21:34:53;;;;;;;1.23;0.80;;;;;;;;;;21021710;28;20209;-69
2023/03/21 21:44:55;;;;;;;0.97;0.60;;;;;;;;;;21021922;28;20714;-69
2023/03/21 21:54:57;;;;;;;2.43;0.93;;;;;;;;;;21037304;28;20671;-69
2023/03/21 22:04:58;;;;;;;1.60;0.80;;;;;;;;;;21019881;28;20293;-69
2023/03/21 22:15:00;;;;;;;1.10;0.70;;;;;;;;;;21035632;28;20242;-69
2023/03/21 22:25:06;;;;;;;1.37;0.80;;;;;;;;;;21035012;28;20250;-69
2023/03/21 22:35:08;;;;;;;1.40;0.60;;;;;;;;;;21034278;28;20208;-69
2023/03/21 22:45:11;;;;;;;0.57;0.40;;;;;;;;;;21016873;28;20277;-71
2023/03/21 22:55:13;;;;;;;2.60;0.60;;;;;;;;;;21049970;28;20200;-69
2023/03/21 23:05:15;;;;;;;1.60;0.80;;;;;;;;;;21049132;28;20224;-69
2023/03/21 23:15:16;;;;;;;1.13;0.63;;;;;;;;;;21015016;28;20209;-69
2023/03/21 23:25:19;;;;;;;1.23;0.60;;;;;;;;;;21030803;28;20269;-69
2023/03/21 23:35:21;;;;;;;0.83;0.60;;;;;;;;;;21015131;28;20209;-69
2023/03/21 23:45:22;;;;;;;0.47;0.37;;;;;;;;;;21031153;28;20238;-71
2023/03/21 23:55:24;;;;;;;2.17;0.97;;;;;;;;;;21041051;28;20266;-69
